createdAt,value
2022-09-28T00:00:51.056Z,64.59
2022-09-28T00:04:03.208Z,65.09
2022-09-28T00:07:05.632Z,65.35
2022-09-28T00:10:08.427Z,65.69
2022-09-28T00:13:10.869Z,65.67
2022-09-28T00:16:14.234Z,65.88
2022-09-28T00:19:16.952Z,66.16
2022-09-28T00:22:19.557Z,65.75
2022-09-28T00:25:22.099Z,65.96
2022-09-28T00:28:24.574Z,66.10
2022-09-28T00:31:32.671Z,66.09
2022-09-28T00:34:36.868Z,65.88
2022-09-28T00:37:39.405Z,65.71
2022-09-28T00:40:41.997Z,65.69
2022-09-28T00:43:44.544Z,65.36
2022-09-28T00:46:47.279Z,65.21
2022-09-28T00:49:53.962Z,65.32
2022-09-28T00:53:07.623Z,65.83
2022-09-28T00:56:12.260Z,66.08
2022-09-28T00:59:15.148Z,66.50
2022-09-28T01:02:17.811Z,66.67
2022-09-28T01:05:20.876Z,65.43
2022-09-28T01:08:25.516Z,66.11
2022-09-28T01:11:29.868Z,65.69
2022-09-28T01:14:32.608Z,66.11
2022-09-28T01:17:35.148Z,65.78
2022-09-28T01:20:39.248Z,65.12
2022-09-28T01:24:14.275Z,64.80
2022-09-28T01:27:36.140Z,63.15
2022-09-28T01:30:58.057Z,63.15
2022-09-28T01:34:04.031Z,63.05
2022-09-28T01:37:09.689Z,63.16
2022-09-28T01:40:15.011Z,63.16
2022-09-28T01:43:19.876Z,63.91
2022-09-28T01:46:25.271Z,64.49
2022-09-28T01:49:31.606Z,64.70
2022-09-28T01:52:40.580Z,64.69
2022-09-28T01:55:47.705Z,64.78
2022-09-28T01:58:57.681Z,66.16
2022-09-28T02:02:09.967Z,66.04
2022-09-28T02:05:39.394Z,65.89
2022-09-28T02:08:48.651Z,65.70
2022-09-28T02:11:58.155Z,65.38
2022-09-28T02:15:08.312Z,65.64
2022-09-28T02:18:11.552Z,65.95
2022-09-28T02:21:22.250Z,65.44
2022-09-28T02:24:33.408Z,65.80
2022-09-28T02:27:48.601Z,65.38
2022-09-28T02:30:51.344Z,65.49
2022-09-28T02:33:54.974Z,66.02
2022-09-28T02:36:57.836Z,66.30
2022-09-28T02:40:00.639Z,66.06
2022-09-28T02:43:18.806Z,66.23
2022-09-28T02:46:30.448Z,66.46
2022-09-28T02:49:49.963Z,66.29
2022-09-28T02:52:52.139Z,66.21
2022-09-28T02:55:57.859Z,66.26
2022-09-28T02:59:00.447Z,65.84
2022-09-28T03:02:12.070Z,65.31
2022-09-28T03:05:18.880Z,65.28
2022-09-28T03:08:24.781Z,65.02
2022-09-28T03:11:30.547Z,64.89
2022-09-28T03:14:33.408Z,65.12
2022-09-28T03:17:35.837Z,65.57
2022-09-28T03:20:38.600Z,65.89
2022-09-28T03:23:41.656Z,66.20
2022-09-28T03:26:44.480Z,66.76
2022-09-28T03:29:47.126Z,66.74
2022-09-28T03:32:59.565Z,66.76
2022-09-28T03:36:02.640Z,66.79
2022-09-28T03:39:05.745Z,67.25
2022-09-28T03:42:08.104Z,67.19
2022-09-28T03:45:11.879Z,67.19
2022-09-28T03:48:14.699Z,66.95
2022-09-28T03:51:18.027Z,66.67
2022-09-28T03:54:20.307Z,66.54
2022-09-28T03:57:23.053Z,66.14
2022-09-28T04:00:25.479Z,66.51
2022-09-28T04:03:28.272Z,66.69
2022-09-28T04:06:30.564Z,66.55
2022-09-28T04:09:33.755Z,66.58
2022-09-28T04:12:36.183Z,66.86
2022-09-28T04:15:40.414Z,66.81
2022-09-28T04:18:42.706Z,66.79
2022-09-28T04:21:45.721Z,67.20
2022-09-28T04:24:48.377Z,66.95
2022-09-28T04:28:09.567Z,66.53
2022-09-28T04:31:13.863Z,66.50
2022-09-28T04:34:18.725Z,66.36
2022-09-28T04:37:21.117Z,66.40
2022-09-28T04:40:23.981Z,66.44
2022-09-28T04:43:26.836Z,66.92
2022-09-28T04:46:30.154Z,67.14
2022-09-28T04:49:35.328Z,66.95
2022-09-28T04:52:38.276Z,66.61
2022-09-28T04:55:40.543Z,66.73
2022-09-28T04:58:43.388Z,67.00
2022-09-28T05:01:47.610Z,66.89
2022-09-28T05:04:53.620Z,66.92
2022-09-28T05:07:59.810Z,66.96
2022-09-28T05:11:04.418Z,67.10
2022-09-28T05:14:06.920Z,66.94
2022-09-28T05:17:10.093Z,66.26
2022-09-28T05:20:13.182Z,65.50
2022-09-28T05:23:17.437Z,66.02
2022-09-28T05:26:19.823Z,66.17
2022-09-28T05:29:22.915Z,66.08
2022-09-28T05:32:25.841Z,66.39
2022-09-28T05:35:31.188Z,66.48
2022-09-28T05:38:33.464Z,66.57
2022-09-28T05:41:37.051Z,65.07
2022-09-28T05:44:40.350Z,64.89
2022-09-28T05:47:44.006Z,64.86
2022-09-28T05:50:52.386Z,64.73
2022-09-28T05:54:01.781Z,64.46
2022-09-28T05:57:07.382Z,63.64
2022-09-28T06:00:10.562Z,63.06
2022-09-28T06:03:14.749Z,62.28
2022-09-28T06:06:17.509Z,62.58
2022-09-28T06:09:22.707Z,62.62
2022-09-28T06:12:29.108Z,62.20
2022-09-28T06:15:33.649Z,61.91
2022-09-28T06:18:36.535Z,60.34
2022-09-28T06:21:38.996Z,60.29
2022-09-28T06:24:42.188Z,58.31
2022-09-28T06:27:53.454Z,58.61
2022-09-28T06:30:56.227Z,58.46
2022-09-28T06:34:01.888Z,56.95
2022-09-28T06:37:04.723Z,57.63
2022-09-28T06:40:07.703Z,57.29
2022-09-28T06:43:12.627Z,56.30
2022-09-28T06:46:21.625Z,54.78
2022-09-28T06:49:27.777Z,53.18
2022-09-28T06:52:31.735Z,52.58
2022-09-28T06:55:35.349Z,51.85
2022-09-28T06:58:37.831Z,52.96
2022-09-28T07:01:41.081Z,51.22
2022-09-28T07:04:43.620Z,52.56
2022-09-28T07:07:46.586Z,52.21
2022-09-28T07:10:56.143Z,53.79
2022-09-28T07:13:59.096Z,53.72
2022-09-28T07:17:13.201Z,51.63
2022-09-28T07:20:19.327Z,51.93
2022-09-28T07:23:22.167Z,51.03
2022-09-28T07:26:34.421Z,50.79
2022-09-28T07:29:36.946Z,49.24
2022-09-28T07:32:41.783Z,48.91
2022-09-28T07:35:52.545Z,48.31
2022-09-28T07:38:55.879Z,47.56
2022-09-28T07:42:02.484Z,45.12
2022-09-28T07:45:07.055Z,38.18
2022-09-28T07:48:09.417Z,26.35
2022-09-28T07:51:12.425Z,18.76
2022-09-28T07:54:14.708Z,14.59
2022-09-28T07:57:19.506Z,12.82
2022-09-28T08:00:22.787Z,11.55
2022-09-28T08:03:25.487Z,10.03
2022-09-28T08:06:30.097Z,10.23
2022-09-28T08:09:32.954Z,9.91
2022-09-28T08:12:40.741Z,9.49
2022-09-28T08:15:45.331Z,17.89
2022-09-28T08:18:49.335Z,22.60
2022-09-28T08:21:52.177Z,30.19
2022-09-28T08:24:54.576Z,31.85
2022-09-28T08:27:57.558Z,33.52
2022-09-28T08:31:03.940Z,32.60
2022-09-28T08:34:06.815Z,33.19
2022-09-28T08:37:11.843Z,35.22
2022-09-28T08:40:24.641Z,36.93
2022-09-28T08:43:46.406Z,36.54
2022-09-28T08:46:53.690Z,37.97
2022-09-28T08:49:57.144Z,37.55
2022-09-28T08:53:05.962Z,40.08
2022-09-28T08:56:15.871Z,40.41
2022-09-28T08:59:21.394Z,39.26
2022-09-28T09:02:28.132Z,38.25
2022-09-28T09:05:49.633Z,37.00
2022-09-28T09:08:57.323Z,35.01
2022-09-28T09:12:07.777Z,35.55
2022-09-28T09:15:11.456Z,37.05
2022-09-28T09:18:33.196Z,38.30
2022-09-28T09:21:43.484Z,38.27
2022-09-28T09:24:50.956Z,38.75
2022-09-28T09:27:54.920Z,38.85
2022-09-28T09:31:08.394Z,39.37
2022-09-28T09:34:12.015Z,39.51
2022-09-28T09:37:24.981Z,39.27
2022-09-28T09:40:27.688Z,38.64
2022-09-28T09:43:42.266Z,37.22
2022-09-28T09:46:54.241Z,35.61
2022-09-28T09:50:05.498Z,34.82
2022-09-28T09:53:13.662Z,32.99
2022-09-28T09:56:23.143Z,31.13
2022-09-28T09:59:33.757Z,30.65
2022-09-28T10:02:38.963Z,32.44
2022-09-28T10:05:43.143Z,34.29
2022-09-28T10:08:50.353Z,38.06
2022-09-28T10:11:54.020Z,39.38
2022-09-28T10:14:56.772Z,39.44
2022-09-28T10:18:06.812Z,40.26
2022-09-28T10:21:15.101Z,42.70
2022-09-28T10:24:22.997Z,43.08
2022-09-28T10:27:30.783Z,43.21
2022-09-28T10:30:44.557Z,43.16
2022-09-28T10:33:47.305Z,40.78
2022-09-28T10:37:06.883Z,39.95
2022-09-28T10:40:28.265Z,38.36
2022-09-28T10:43:34.622Z,38.50
2022-09-28T10:46:38.857Z,37.71
2022-09-28T10:49:47.276Z,39.00
2022-09-28T10:52:50.206Z,39.63
2022-09-28T10:55:59.342Z,40.50
2022-09-28T10:59:01.978Z,40.42
2022-09-28T11:02:26.227Z,40.04
2022-09-28T11:05:30.138Z,40.43
2022-09-28T11:08:36.288Z,40.90
2022-09-28T11:11:42.931Z,41.47
2022-09-28T11:14:46.566Z,41.10
2022-09-28T11:17:49.391Z,41.04
2022-09-28T11:20:52.882Z,40.10
2022-09-28T11:24:07.320Z,38.01
2022-09-28T11:27:18.918Z,37.90
2022-09-28T11:30:28.046Z,41.17
2022-09-28T11:33:33.619Z,42.21
2022-09-28T11:37:02.275Z,42.30
2022-09-28T11:40:12.737Z,40.70
2022-09-28T11:43:24.202Z,39.88
2022-09-28T11:46:41.641Z,38.19
2022-09-28T11:49:52.417Z,38.44
2022-09-28T11:53:04.603Z,38.74
2022-09-28T11:56:19.811Z,39.12
2022-09-28T11:59:39.790Z,37.34
2022-09-28T12:02:46.436Z,36.76
2022-09-28T12:05:52.558Z,37.98
2022-09-28T12:08:58.400Z,37.58
2022-09-28T12:12:03.945Z,37.22
2022-09-28T12:15:13.731Z,37.07
2022-09-28T12:18:28.547Z,37.18
2022-09-28T12:21:34.006Z,37.68
2022-09-28T12:24:38.826Z,37.45
2022-09-28T12:27:53.319Z,36.13
2022-09-28T12:30:58.999Z,36.73
2022-09-28T12:34:02.267Z,36.94
2022-09-28T12:37:09.190Z,37.66
2022-09-28T12:40:30.667Z,39.33
2022-09-28T12:43:33.619Z,39.19
2022-09-28T12:46:36.722Z,39.82
2022-09-28T12:53:07.958Z,41.56
2022-09-28T12:56:16.763Z,42.21
2022-09-28T12:59:28.111Z,41.14
2022-09-28T13:02:39.988Z,39.95
2022-09-28T13:05:45.676Z,38.90
2022-09-28T13:08:56.566Z,39.02
2022-09-28T13:12:14.037Z,39.14
2022-09-28T13:15:29.438Z,38.73
2022-09-28T13:18:35.062Z,38.35
2022-09-28T13:21:44.054Z,39.37
2022-09-28T13:24:47.440Z,38.85
2022-09-28T13:28:01.569Z,38.49
2022-09-28T13:31:05.722Z,38.60
2022-09-28T13:34:18.369Z,40.29
2022-09-28T13:37:25.706Z,41.96
2022-09-28T13:40:48.414Z,41.49
2022-09-28T13:44:03.200Z,41.12
2022-09-28T13:47:26.461Z,40.61
2022-09-28T13:50:36.748Z,40.58
2022-09-28T13:53:51.639Z,40.35
2022-09-28T13:57:09.510Z,40.79
2022-09-28T14:00:12.087Z,40.73
2022-09-28T14:03:30.779Z,40.80
2022-09-28T14:06:33.373Z,40.86
2022-09-28T14:09:46.789Z,41.43
2022-09-28T14:12:51.358Z,41.35
2022-09-28T14:16:14.795Z,40.64
2022-09-28T14:19:24.394Z,40.18
2022-09-28T14:22:39.537Z,40.73
2022-09-28T14:25:46.672Z,41.53
2022-09-28T14:29:02.111Z,42.55
2022-09-28T14:32:10.806Z,43.88
2022-09-28T14:35:20.852Z,43.89
2022-09-28T14:38:44.805Z,43.85
2022-09-28T14:41:47.278Z,43.65
2022-09-28T14:45:06.377Z,43.74
2022-09-28T14:48:15.239Z,43.94
2022-09-28T14:51:30.237Z,44.50
2022-09-28T14:54:45.391Z,44.72
2022-09-28T14:57:52.128Z,45.03
2022-09-28T15:00:58.522Z,45.28
2022-09-28T15:04:04.969Z,45.56
2022-09-28T15:07:19.304Z,45.79
2022-09-28T15:10:27.731Z,46.18
2022-09-28T15:13:33.744Z,46.45
2022-09-28T15:16:36.739Z,46.49
2022-09-28T15:20:02.637Z,46.61
2022-09-28T15:23:05.404Z,47.12
2022-09-28T15:26:20.001Z,47.09
2022-09-28T15:29:28.217Z,46.89
2022-09-28T15:32:32.165Z,47.20
2022-09-28T15:35:35.702Z,47.27
2022-09-28T15:38:38.207Z,47.45
2022-09-28T15:41:42.898Z,47.50
2022-09-28T15:45:08.845Z,47.93
2022-09-28T15:48:29.075Z,47.56
2022-09-28T15:51:44.686Z,47.47
2022-09-28T15:54:47.363Z,47.51
2022-09-28T15:57:50.261Z,47.80
2022-09-28T16:01:12.940Z,47.91
2022-09-28T16:04:35.266Z,47.92
2022-09-28T16:07:41.646Z,47.57
2022-09-28T16:10:53.413Z,47.95
2022-09-28T16:14:02.663Z,48.14
2022-09-28T16:17:05.637Z,48.13
2022-09-28T16:20:22.309Z,48.62
2022-09-28T16:23:33.242Z,49.10
2022-09-28T16:26:39.028Z,49.11
2022-09-28T16:29:45.296Z,49.30
2022-09-28T16:32:51.803Z,49.54
2022-09-28T16:35:54.595Z,49.51
2022-09-28T16:38:57.314Z,49.87
2022-09-28T16:42:03.156Z,50.14
2022-09-28T16:45:06.776Z,50.27
2022-09-28T16:48:13.639Z,50.47
2022-09-28T16:51:16.828Z,50.57
2022-09-28T16:54:42.465Z,50.56
2022-09-28T16:57:46.300Z,50.66
2022-09-28T17:00:49.176Z,51.01
2022-09-28T17:03:51.677Z,51.00
2022-09-28T17:06:55.565Z,50.95
2022-09-28T17:09:58.016Z,50.73
2022-09-28T17:13:01.036Z,50.55
2022-09-28T17:16:06.329Z,50.74
2022-09-28T17:19:21.210Z,50.79
2022-09-28T17:22:23.860Z,51.19
2022-09-28T17:25:27.240Z,51.44
2022-09-28T17:28:32.102Z,51.97
2022-09-28T17:31:35.285Z,52.52
2022-09-28T17:34:37.546Z,53.29
2022-09-28T17:37:43.374Z,53.42
2022-09-28T17:40:48.015Z,54.65
2022-09-28T17:43:51.217Z,55.61
2022-09-28T17:46:53.902Z,56.35
2022-09-28T17:49:58.736Z,56.00
2022-09-28T17:53:05.963Z,57.35
2022-09-28T17:56:09.897Z,58.27
2022-09-28T17:59:17.484Z,58.05
2022-09-28T18:02:20.203Z,59.50
2022-09-28T18:05:24.936Z,60.10
2022-09-28T18:08:28.104Z,60.76
2022-09-28T18:11:31.642Z,61.18
2022-09-28T18:14:35.741Z,62.31
2022-09-28T18:17:39.188Z,62.75
2022-09-28T18:20:42.126Z,62.92
2022-09-28T18:23:44.691Z,63.99
2022-09-28T18:26:47.925Z,65.22
2022-09-28T18:29:50.745Z,65.89
2022-09-28T18:32:53.772Z,65.69
2022-09-28T18:35:56.375Z,66.30
2022-09-28T18:39:00.963Z,67.00
2022-09-28T18:42:04.209Z,67.52
2022-09-28T18:45:08.319Z,68.74
2022-09-28T18:48:10.967Z,68.87
2022-09-28T18:51:13.451Z,69.05
2022-09-28T18:54:17.074Z,69.37
2022-09-28T18:57:19.593Z,70.11
2022-09-28T19:00:22.187Z,70.13
2022-09-28T19:03:24.760Z,70.84
2022-09-28T19:06:28.068Z,70.99
2022-09-28T19:09:32.276Z,71.02
2022-09-28T19:12:34.893Z,71.48
2022-09-28T19:15:37.425Z,71.73
2022-09-28T19:18:40.015Z,72.84
2022-09-28T19:21:43.425Z,73.10
2022-09-28T19:24:47.468Z,73.21
2022-09-28T19:27:52.471Z,73.09
2022-09-28T19:30:56.739Z,72.87
2022-09-28T19:33:59.195Z,72.87
2022-09-28T19:37:04.891Z,73.31
2022-09-28T19:40:08.073Z,73.81
2022-09-28T19:43:10.643Z,73.72
2022-09-28T19:46:13.385Z,74.03
2022-09-28T19:49:21.134Z,74.23
2022-09-28T19:52:23.800Z,75.65
2022-09-28T19:55:31.908Z,75.80
2022-09-28T19:58:36.390Z,75.89
2022-09-28T20:01:39.237Z,75.92
2022-09-28T20:04:42.089Z,76.62
2022-09-28T20:07:44.408Z,76.54
2022-09-28T20:10:52.396Z,76.75
2022-09-28T20:13:55.413Z,77.29
2022-09-28T20:16:58.314Z,77.24
2022-09-28T20:20:03.646Z,77.24
2022-09-28T20:23:06.464Z,77.24
2022-09-28T20:26:11.837Z,77.27
2022-09-28T20:29:14.594Z,77.11
2022-09-28T20:32:19.188Z,77.23
2022-09-28T20:35:32.267Z,77.07
2022-09-28T20:38:40.644Z,77.13
2022-09-28T20:41:43.521Z,77.79
2022-09-28T20:44:46.003Z,77.58
2022-09-28T20:47:48.843Z,77.99
2022-09-28T20:51:01.420Z,77.45
2022-09-28T20:54:04.226Z,77.32
2022-09-28T20:57:17.665Z,77.77
2022-09-28T21:00:22.923Z,77.74
2022-09-28T21:03:25.454Z,76.96
2022-09-28T21:06:29.598Z,77.08
2022-09-28T21:09:32.502Z,77.05
2022-09-28T21:12:36.977Z,77.60
2022-09-28T21:15:39.449Z,77.38
2022-09-28T21:18:42.287Z,77.64
2022-09-28T21:21:44.908Z,77.14
2022-09-28T21:24:47.624Z,77.87
2022-09-28T21:27:50.558Z,78.20
2022-09-28T21:30:53.439Z,78.37
2022-09-28T21:33:56.114Z,78.46
2022-09-28T21:36:59.006Z,78.67
2022-09-28T21:40:02.591Z,78.15
2022-09-28T21:43:05.284Z,78.62
2022-09-28T21:46:07.631Z,78.69
2022-09-28T21:49:11.018Z,78.50
2022-09-28T21:52:13.225Z,78.39
2022-09-28T21:55:15.991Z,78.46
2022-09-28T21:58:23.151Z,78.87
2022-09-28T22:01:26.175Z,78.74
2022-09-28T22:04:28.801Z,78.83
2022-09-28T22:07:31.233Z,79.58
2022-09-28T22:10:33.711Z,80.18
2022-09-28T22:13:40.284Z,80.93
2022-09-28T22:16:43.377Z,80.52
2022-09-28T22:19:45.859Z,80.71
2022-09-28T22:22:50.941Z,80.68
2022-09-28T22:25:59.576Z,80.36
2022-09-28T22:29:06.633Z,80.74
2022-09-28T22:32:09.159Z,80.49
2022-09-28T22:35:14.019Z,80.34
2022-09-28T22:38:17.489Z,80.37
2022-09-28T22:41:23.055Z,80.17
2022-09-28T22:44:25.727Z,79.59
2022-09-28T22:47:28.227Z,79.56
2022-09-28T22:50:31.585Z,79.66
2022-09-28T22:53:35.396Z,79.86
2022-09-28T22:56:37.798Z,79.96
2022-09-28T22:59:40.290Z,79.53
2022-09-28T23:02:43.094Z,79.32
2022-09-28T23:05:52.376Z,79.50
2022-09-28T23:08:55.044Z,79.61
2022-09-28T23:11:57.645Z,79.39
2022-09-28T23:15:00.114Z,79.11
2022-09-28T23:18:02.641Z,79.38
2022-09-28T23:21:06.525Z,79.05
2022-09-28T23:24:11.015Z,79.69
2022-09-28T23:27:13.634Z,79.77
2022-09-28T23:30:17.090Z,80.03
2022-09-28T23:33:21.012Z,80.24
2022-09-28T23:36:23.676Z,80.13
2022-09-28T23:39:26.173Z,80.08
2022-09-28T23:42:29.058Z,80.49
2022-09-28T23:45:31.919Z,80.39
2022-09-28T23:48:34.462Z,79.83
2022-09-28T23:51:37.062Z,80.29
2022-09-28T23:54:39.763Z,80.10
2022-09-28T23:57:45.188Z,79.77
